Terminal Aerodrome Forecast
Issued by NWS Wilmington, OH

Current Version | Previous Version | Graphics & Text | Print | Product List | Glossary On
Versions: 1 2 3 4 5 6 7 8 9 10 11 12 13 14 15 16 17 18 19 20 21 22 23 24 25 26 27 28 29 30 31 32
000
FTUS41 KILN 312338
TAFCVG
TAF
KCVG 312338Z 0100/0206 26009KT P6SM FEW060
     FM010300 29003KT P6SM SKC
     FM011700 30009G18KT P6SM SCT060
     FM012200 29009KT P6SM SCT250=

USA.gov is the U.S. government's official web portal to all federal, state and local government web resources and services.